createdAt,value
2018-04-22T00:01:52.488Z,13.57
2018-04-22T00:04:19.241Z,13.52
2018-04-22T00:06:46.757Z,13.70
2018-04-22T00:09:13.531Z,14.00
2018-04-22T00:11:40.285Z,14.04
2018-04-22T00:14:07.724Z,13.90
2018-04-22T00:16:34.425Z,13.83
2018-04-22T00:19:01.108Z,13.78
2018-04-22T00:21:27.821Z,13.86
2018-04-22T00:23:54.519Z,14.06
2018-04-22T00:26:21.202Z,13.91
2018-04-22T00:28:47.892Z,14.16
2018-04-22T00:31:14.606Z,13.93
2018-04-22T00:33:42.048Z,13.83
2018-04-22T00:36:08.735Z,13.81
2018-04-22T00:38:35.435Z,13.78
2018-04-22T00:41:02.185Z,13.85
2018-04-22T00:43:29.719Z,13.71
2018-04-22T00:45:56.479Z,13.61
2018-04-22T00:48:23.944Z,13.51
2018-04-22T00:50:51.473Z,13.60
2018-04-22T00:53:18.278Z,13.50
2018-04-22T00:55:45.041Z,13.51
2018-04-22T00:58:11.828Z,13.58
2018-04-22T01:00:38.619Z,13.59
2018-04-22T01:03:05.424Z,13.54
2018-04-22T01:05:32.194Z,13.40
2018-04-22T01:07:58.964Z,13.32
2018-04-22T01:10:25.724Z,13.39
2018-04-22T01:12:53.212Z,13.27
2018-04-22T01:15:19.950Z,13.14
2018-04-22T01:17:46.688Z,13.08
2018-04-22T01:20:14.939Z,13.10
2018-04-22T01:22:42.409Z,13.07
2018-04-22T01:25:09.183Z,13.20
2018-04-22T01:27:35.928Z,13.13
2018-04-22T01:30:02.760Z,13.18
2018-04-22T01:32:29.502Z,13.14
2018-04-22T01:34:56.278Z,13.19
2018-04-22T01:37:23.075Z,13.17
2018-04-22T01:39:49.818Z,13.15
2018-04-22T01:42:17.262Z,13.08
2018-04-22T01:44:43.942Z,13.03
2018-04-22T01:47:10.624Z,12.98
2018-04-22T01:49:37.332Z,12.99
2018-04-22T01:52:04.039Z,12.98
2018-04-22T01:54:30.791Z,12.94
2018-04-22T01:56:57.492Z,12.88
2018-04-22T01:59:24.188Z,12.81
2018-04-22T02:01:50.871Z,12.80
2018-04-22T02:04:17.560Z,12.78
2018-04-22T02:06:44.275Z,12.76
2018-04-22T02:09:11.031Z,12.63
2018-04-22T02:11:37.800Z,12.52
2018-04-22T02:14:05.260Z,12.49
2018-04-22T02:16:32.739Z,12.47
2018-04-22T02:18:59.452Z,12.40
2018-04-22T02:21:26.912Z,12.24
2018-04-22T02:23:54.413Z,11.97
2018-04-22T02:26:21.161Z,11.75
2018-04-22T02:28:47.881Z,11.60
2018-04-22T02:31:14.636Z,11.46
2018-04-22T02:33:41.355Z,11.38
2018-04-22T02:36:08.095Z,11.37
2018-04-22T02:38:34.852Z,11.44
2018-04-22T02:41:01.643Z,11.48
2018-04-22T02:43:29.125Z,11.54
2018-04-22T02:45:56.027Z,11.80
2018-04-22T02:48:22.752Z,11.79
2018-04-22T02:50:49.497Z,11.78
2018-04-22T02:53:16.226Z,11.92
2018-04-22T02:55:42.953Z,12.07
2018-04-22T02:58:09.729Z,12.27
2018-04-22T03:00:37.215Z,12.42
2018-04-22T03:03:03.963Z,12.29
2018-04-22T03:05:30.675Z,12.13
2018-04-22T03:07:58.150Z,12.03
2018-04-22T03:10:24.883Z,11.92
2018-04-22T03:12:51.620Z,11.78
2018-04-22T03:15:18.335Z,11.62
2018-04-22T03:17:45.096Z,11.53
2018-04-22T03:20:11.815Z,11.52
2018-04-22T03:22:39.292Z,11.55
2018-04-22T03:25:06.740Z,11.58
2018-04-22T03:27:34.191Z,11.55
2018-04-22T03:30:01.644Z,11.41
2018-04-22T03:32:29.115Z,11.22
2018-04-22T03:34:55.838Z,11.05
2018-04-22T03:37:22.581Z,10.93
2018-04-22T03:39:50.075Z,10.91
2018-04-22T03:42:16.780Z,11.06
2018-04-22T03:44:44.256Z,11.52
2018-04-22T03:47:10.976Z,11.43
2018-04-22T03:49:38.439Z,11.40
2018-04-22T03:52:05.938Z,11.36
2018-04-22T03:54:32.654Z,11.34
2018-04-22T03:56:59.376Z,11.31
2018-04-22T03:59:26.824Z,11.21
2018-04-22T04:01:54.263Z,11.34
2018-04-22T04:04:20.984Z,11.48
2018-04-22T04:06:47.724Z,11.71
2018-04-22T04:09:14.464Z,11.55
2018-04-22T04:11:41.216Z,11.43
2018-04-22T04:14:07.991Z,11.34
2018-04-22T04:16:35.472Z,11.39
2018-04-22T04:19:20.362Z,11.30
2018-04-22T04:22:05.356Z,11.26
2018-04-22T04:24:56.163Z,11.13
2018-04-22T04:30:23.293Z,11.01
2018-04-22T04:32:50.043Z,10.99
2018-04-22T04:35:16.939Z,11.05
2018-04-22T04:37:44.956Z,11.12
2018-04-22T04:40:11.678Z,11.18
2018-04-22T04:42:38.375Z,11.24
2018-04-22T04:45:05.878Z,11.32
2018-04-22T04:47:32.579Z,11.37
2018-04-22T04:50:00.029Z,11.54
2018-04-22T04:52:27.484Z,11.85
2018-04-22T04:54:54.986Z,12.02
2018-04-22T04:57:21.683Z,12.12
2018-04-22T04:59:49.158Z,12.36
2018-04-22T05:02:15.871Z,12.53
2018-04-22T05:04:43.330Z,12.58
2018-04-22T05:07:10.796Z,12.76
2018-04-22T05:09:38.250Z,12.83
2018-04-22T05:12:05.666Z,12.92
2018-04-22T05:14:32.423Z,13.16
2018-04-22T05:16:59.841Z,13.08
2018-04-22T05:19:26.506Z,13.18
2018-04-22T05:21:53.183Z,13.40
2018-04-22T05:24:19.875Z,13.28
2018-04-22T05:26:46.556Z,13.50
2018-04-22T05:29:13.971Z,13.90
2018-04-22T05:31:40.646Z,14.26
2018-04-22T05:34:07.306Z,14.50
2018-04-22T05:36:34.005Z,14.91
2018-04-22T05:39:00.704Z,15.19
2018-04-22T05:41:27.363Z,15.42
2018-04-22T05:43:54.019Z,15.15
2018-04-22T05:46:20.712Z,15.10
2018-04-22T05:48:47.395Z,15.36
2018-04-22T05:51:14.066Z,14.72
2018-04-22T05:53:40.730Z,14.69
2018-04-22T05:56:07.449Z,14.87
2018-04-22T05:58:34.159Z,15.29
2018-04-22T06:01:01.619Z,15.45
2018-04-22T06:03:29.066Z,15.73
2018-04-22T06:05:56.491Z,15.87
2018-04-22T06:08:23.171Z,16.19
2018-04-22T06:10:50.646Z,16.81
2018-04-22T06:13:17.361Z,16.70
2018-04-22T06:15:44.899Z,16.94
2018-04-22T06:18:11.631Z,17.09
2018-04-22T06:20:38.369Z,17.26
2018-04-22T06:23:05.853Z,17.75
2018-04-22T06:25:33.326Z,17.23
2018-04-22T06:28:00.026Z,17.41
2018-04-22T06:30:26.707Z,17.69
2018-04-22T06:32:53.371Z,18.41
2018-04-22T06:35:20.061Z,18.29
2018-04-22T06:37:46.779Z,18.09
2018-04-22T06:40:13.486Z,18.64
2018-04-22T06:42:40.164Z,18.81
2018-04-22T06:45:06.827Z,18.78
2018-04-22T06:47:34.239Z,19.33
2018-04-22T06:50:00.932Z,19.27
2018-04-22T06:52:27.616Z,19.49
2018-04-22T06:54:54.291Z,19.69
2018-04-22T06:57:20.997Z,19.45
2018-04-22T06:59:47.679Z,19.16
2018-04-22T07:02:14.351Z,19.55
2018-04-22T07:04:41.024Z,19.99
2018-04-22T07:07:07.696Z,19.73
2018-04-22T07:09:34.383Z,19.80
2018-04-22T07:12:01.084Z,19.88
2018-04-22T07:14:27.781Z,19.98
2018-04-22T07:16:54.483Z,20.50
2018-04-22T07:19:21.198Z,20.82
2018-04-22T07:21:47.929Z,20.99
2018-04-22T07:24:14.637Z,21.11
2018-04-22T07:26:41.306Z,20.92
2018-04-22T07:29:07.984Z,21.25
2018-04-22T07:31:34.724Z,21.34
2018-04-22T07:34:01.428Z,21.43
2018-04-22T07:36:28.116Z,21.34
2018-04-22T07:38:55.088Z,21.24
2018-04-22T07:41:22.624Z,21.14
2018-04-22T07:43:49.383Z,21.60
2018-04-22T07:46:16.108Z,21.66
2018-04-22T07:48:42.938Z,21.82
2018-04-22T07:51:09.698Z,22.24
2018-04-22T07:53:37.195Z,22.65
2018-04-22T07:56:03.966Z,22.44
2018-04-22T07:58:30.711Z,22.31
2018-04-22T08:00:57.498Z,22.65
2018-04-22T08:03:25.131Z,22.85
2018-04-22T08:05:51.891Z,22.59
2018-04-22T08:08:18.619Z,22.47
2018-04-22T08:10:47.986Z,22.47
2018-04-22T08:13:14.776Z,23.17
2018-04-22T08:15:41.526Z,23.16
2018-04-22T08:18:08.263Z,23.63
2018-04-22T08:20:34.963Z,23.40
2018-04-22T08:23:01.659Z,24.06
2018-04-22T08:25:28.414Z,25.00
2018-04-22T08:27:55.132Z,24.14
2018-04-22T08:30:21.839Z,24.27
2018-04-22T08:32:49.266Z,24.71
2018-04-22T08:35:15.945Z,24.81
2018-04-22T08:37:42.659Z,24.44
2018-04-22T08:40:09.372Z,24.15
2018-04-22T08:42:36.084Z,24.55
2018-04-22T08:45:03.536Z,25.10
2018-04-22T08:47:30.218Z,25.13
2018-04-22T08:49:56.904Z,24.74
2018-04-22T08:52:23.571Z,25.16
2018-04-22T08:54:50.237Z,25.68
2018-04-22T08:57:16.911Z,26.03
2018-04-22T08:59:43.619Z,25.65
2018-04-22T09:02:10.304Z,25.88
2018-04-22T09:04:36.976Z,26.00
2018-04-22T09:07:03.694Z,25.59
2018-04-22T09:09:30.374Z,25.82
2018-04-22T09:11:57.102Z,26.41
2018-04-22T09:14:23.771Z,26.09
2018-04-22T09:16:51.217Z,25.94
2018-04-22T09:19:18.637Z,26.13
2018-04-22T09:21:45.329Z,25.97
2018-04-22T09:24:12.751Z,25.42
2018-04-22T09:26:39.476Z,25.87
2018-04-22T09:29:06.176Z,26.15
2018-04-22T09:31:32.890Z,26.39
2018-04-22T09:34:00.303Z,26.81
2018-04-22T09:36:27.008Z,26.49
2018-04-22T09:38:54.423Z,26.42
2018-04-22T09:41:21.170Z,26.86
2018-04-22T09:43:48.611Z,27.41
2018-04-22T09:46:15.350Z,27.80
2018-04-22T09:48:42.055Z,27.78
2018-04-22T09:51:08.818Z,27.77
2018-04-22T09:53:35.562Z,27.87
2018-04-22T09:56:02.281Z,28.49
2018-04-22T09:58:28.948Z,28.73
2018-04-22T10:01:00.556Z,28.20
2018-04-22T10:03:31.136Z,28.64
2018-04-22T10:06:01.699Z,28.55
2018-04-22T10:08:28.379Z,29.16
2018-04-22T10:10:55.089Z,29.61
2018-04-22T10:13:21.776Z,29.41
2018-04-22T10:15:48.438Z,30.29
2018-04-22T10:18:15.923Z,30.26
2018-04-22T10:20:42.615Z,30.43
2018-04-22T10:23:09.288Z,30.21
2018-04-22T10:25:35.968Z,30.11
2018-04-22T10:28:02.656Z,30.05
2018-04-22T10:30:29.416Z,30.04
2018-04-22T10:32:56.156Z,30.20
2018-04-22T10:35:22.916Z,30.97
2018-04-22T10:37:49.671Z,31.07
2018-04-22T10:40:16.436Z,30.65
2018-04-22T10:42:44.011Z,31.11
2018-04-22T10:45:10.768Z,31.11
2018-04-22T10:47:37.540Z,30.77
2018-04-22T10:50:04.311Z,30.16
2018-04-22T10:52:31.818Z,30.31
2018-04-22T10:54:58.660Z,30.48
2018-04-22T10:57:25.445Z,30.37
2018-04-22T10:59:52.277Z,30.80
2018-04-22T11:02:19.116Z,30.69
2018-04-22T11:04:45.816Z,31.09
2018-04-22T11:07:12.514Z,31.68
2018-04-22T11:09:39.270Z,31.18
2018-04-22T11:12:06.688Z,31.50
2018-04-22T11:14:33.383Z,31.78
2018-04-22T11:17:00.071Z,31.33
2018-04-22T11:19:26.738Z,30.34
2018-04-22T11:21:54.195Z,29.48
2018-04-22T11:24:21.633Z,28.77
2018-04-22T11:26:48.320Z,29.12
2018-04-22T11:29:15.004Z,29.73
2018-04-22T11:31:41.750Z,31.12
2018-04-22T11:34:08.428Z,31.37
2018-04-22T11:36:35.108Z,31.14
2018-04-22T11:39:01.798Z,30.26
2018-04-22T11:41:28.519Z,30.65
2018-04-22T11:43:56.000Z,30.92
2018-04-22T11:46:22.803Z,31.30
2018-04-22T11:48:50.303Z,31.45
2018-04-22T11:51:17.804Z,31.74
2018-04-22T11:53:44.491Z,30.92
2018-04-22T11:56:11.216Z,29.98
2018-04-22T11:58:37.951Z,29.51
2018-04-22T12:01:05.383Z,28.81
2018-04-22T12:03:32.103Z,28.54
2018-04-22T12:05:58.783Z,28.30
2018-04-22T12:08:26.216Z,28.15
2018-04-22T12:10:52.970Z,27.99
2018-04-22T12:13:20.432Z,28.56
2018-04-22T12:15:47.856Z,29.45
2018-04-22T12:18:14.551Z,30.46
2018-04-22T12:20:41.285Z,30.72
2018-04-22T12:23:08.711Z,30.30
2018-04-22T12:25:36.139Z,30.28
2018-04-22T12:28:02.854Z,30.79
2018-04-22T12:30:29.632Z,30.86
2018-04-22T12:32:56.303Z,30.24
2018-04-22T12:35:23.738Z,29.51
2018-04-22T12:37:50.512Z,29.02
2018-04-22T12:40:17.944Z,28.69
2018-04-22T12:42:46.420Z,28.57
2018-04-22T12:45:13.944Z,28.67
2018-04-22T12:47:40.726Z,29.78
2018-04-22T12:50:08.299Z,31.18
2018-04-22T12:52:35.103Z,31.98
2018-04-22T12:55:01.786Z,32.50
2018-04-22T12:57:29.244Z,32.03
2018-04-22T12:59:55.908Z,32.03
2018-04-22T13:02:22.631Z,32.16
2018-04-22T13:04:49.376Z,32.19
2018-04-22T13:07:16.116Z,32.64
2018-04-22T13:09:42.811Z,32.32
2018-04-22T13:12:10.288Z,31.51
2018-04-22T13:14:36.989Z,30.74
2018-04-22T13:17:03.728Z,30.14
2018-04-22T13:19:30.437Z,29.60
2018-04-22T13:21:57.103Z,30.58
2018-04-22T13:24:23.784Z,30.84
2018-04-22T13:26:50.459Z,31.05
2018-04-22T13:29:17.130Z,31.99
2018-04-22T13:31:43.873Z,32.93
2018-04-22T13:34:10.526Z,32.90
2018-04-22T13:36:37.976Z,33.21
2018-04-22T13:39:05.511Z,32.44
2018-04-22T13:41:32.223Z,32.49
2018-04-22T13:43:58.903Z,32.49
2018-04-22T13:46:25.609Z,32.77
2018-04-22T13:48:52.326Z,32.62
2018-04-22T13:51:19.035Z,31.91
2018-04-22T13:53:46.456Z,31.67
2018-04-22T13:56:13.921Z,32.79
2018-04-22T13:58:40.596Z,33.42
2018-04-22T14:01:07.308Z,33.19
2018-04-22T14:03:33.998Z,33.19
2018-04-22T14:06:00.743Z,33.19
2018-04-22T14:08:27.431Z,32.81
2018-04-22T14:10:54.856Z,32.80
2018-04-22T14:13:21.546Z,33.68
2018-04-22T14:15:48.267Z,34.70
2018-04-22T14:18:15.687Z,34.82
2018-04-22T14:20:42.362Z,34.15
2018-04-22T14:23:09.072Z,33.92
2018-04-22T14:25:35.754Z,33.68
2018-04-22T14:28:02.466Z,33.86
2018-04-22T14:30:29.134Z,33.69
2018-04-22T14:32:55.804Z,33.68
2018-04-22T14:35:22.472Z,34.28
2018-04-22T14:37:49.146Z,34.38
2018-04-22T14:40:15.864Z,34.31
2018-04-22T14:42:43.298Z,34.13
2018-04-22T14:45:28.377Z,34.01
2018-04-22T14:47:55.772Z,34.30
2018-04-22T14:50:22.535Z,34.35
2018-04-22T14:52:49.206Z,34.19
2018-04-22T14:55:15.904Z,34.41
2018-04-22T14:57:42.623Z,34.09
2018-04-22T15:00:10.119Z,33.63
2018-04-22T15:02:36.999Z,33.72
2018-04-22T15:05:04.472Z,33.36
2018-04-22T15:07:31.152Z,33.24
2018-04-22T15:09:57.816Z,33.77
2018-04-22T15:12:24.510Z,33.96
2018-04-22T15:14:51.203Z,33.38
2018-04-22T15:17:17.917Z,33.46
2018-04-22T15:19:44.595Z,33.29
2018-04-22T15:22:12.030Z,32.97
2018-04-22T15:24:38.739Z,33.14
2018-04-22T15:27:05.436Z,32.92
2018-04-22T15:29:32.858Z,32.84
2018-04-22T15:31:59.522Z,33.25
2018-04-22T15:34:26.944Z,33.38
2018-04-22T15:36:53.641Z,33.85
2018-04-22T15:39:20.335Z,33.76
2018-04-22T15:41:47.036Z,34.11
2018-04-22T15:44:13.769Z,33.59
2018-04-22T15:46:40.449Z,32.88
2018-04-22T15:49:07.121Z,32.49
2018-04-22T15:51:33.822Z,32.90
2018-04-22T15:54:00.524Z,33.01
2018-04-22T15:56:27.259Z,32.55
2018-04-22T15:58:53.977Z,32.27
2018-04-22T16:01:20.771Z,32.19
2018-04-22T16:03:47.539Z,32.28
2018-04-22T16:06:15.044Z,32.26
2018-04-22T16:08:41.786Z,31.61
2018-04-22T16:11:08.546Z,31.64
2018-04-22T16:13:35.279Z,31.40
2018-04-22T16:16:02.030Z,31.70
2018-04-22T16:18:28.775Z,31.50
2018-04-22T16:20:55.528Z,31.47
2018-04-22T16:23:22.254Z,31.43
2018-04-22T16:25:49.035Z,31.39
2018-04-22T16:28:15.805Z,30.91
2018-04-22T16:30:43.566Z,29.86
2018-04-22T16:33:10.375Z,28.67
2018-04-22T16:35:37.160Z,27.80
2018-04-22T16:38:03.940Z,27.26
2018-04-22T16:40:31.483Z,26.63
2018-04-22T16:42:58.222Z,26.34
2018-04-22T16:45:25.051Z,26.19
2018-04-22T16:47:51.815Z,25.89
2018-04-22T16:50:19.326Z,25.63
2018-04-22T16:52:46.139Z,25.45
2018-04-22T16:55:12.896Z,25.33
2018-04-22T16:57:39.637Z,25.19
2018-04-22T17:00:07.348Z,25.00
2018-04-22T17:02:34.133Z,25.01
2018-04-22T17:05:00.868Z,24.92
2018-04-22T17:07:27.640Z,24.80
2018-04-22T17:09:54.377Z,24.79
2018-04-22T17:12:21.146Z,25.05
2018-04-22T17:14:47.908Z,24.82
2018-04-22T17:17:15.415Z,24.61
2018-04-22T17:19:42.198Z,24.53
2018-04-22T17:22:09.672Z,24.73
2018-04-22T17:24:36.441Z,24.68
2018-04-22T17:27:03.246Z,24.60
2018-04-22T17:29:30.731Z,24.38
2018-04-22T17:31:57.471Z,24.27
2018-04-22T17:34:24.261Z,24.22
2018-04-22T17:36:51.035Z,24.12
2018-04-22T17:39:17.788Z,23.92
2018-04-22T17:41:44.638Z,23.78
2018-04-22T17:44:11.438Z,23.64
2018-04-22T17:46:38.129Z,23.60
2018-04-22T17:49:04.863Z,23.73
2018-04-22T17:51:31.639Z,23.60
2018-04-22T17:53:58.422Z,23.37
2018-04-22T17:56:25.260Z,23.31
2018-04-22T17:58:51.969Z,23.11
2018-04-22T18:01:18.696Z,22.96
2018-04-22T18:03:45.401Z,22.89
2018-04-22T18:06:12.106Z,22.79
2018-04-22T18:08:39.564Z,22.64
2018-04-22T18:11:07.048Z,22.45
2018-04-22T18:13:33.807Z,22.22
2018-04-22T18:16:00.570Z,21.85
2018-04-22T18:18:27.312Z,21.62
2018-04-22T18:20:54.004Z,21.43
2018-04-22T18:23:20.694Z,21.31
2018-04-22T18:25:47.414Z,21.35
2018-04-22T18:28:14.094Z,21.47
2018-04-22T18:30:41.520Z,21.16
2018-04-22T18:33:08.247Z,21.12
2018-04-22T18:35:34.902Z,21.03
2018-04-22T18:38:01.575Z,20.95
2018-04-22T18:40:28.288Z,20.87
2018-04-22T18:42:55.023Z,20.78
2018-04-22T18:45:21.723Z,20.69
2018-04-22T18:47:48.395Z,20.60
2018-04-22T18:50:15.114Z,20.57
2018-04-22T18:52:41.788Z,20.52
2018-04-22T18:55:09.241Z,20.57
2018-04-22T18:57:35.983Z,20.71
2018-04-22T19:00:04.467Z,20.74
2018-04-22T19:02:31.938Z,20.72
2018-04-22T19:04:59.369Z,20.51
2018-04-22T19:07:26.824Z,20.36
2018-04-22T19:09:53.486Z,20.27
2018-04-22T19:12:20.925Z,20.08
2018-04-22T19:14:48.358Z,19.83
2018-04-22T19:17:15.104Z,19.64
2018-04-22T19:19:41.836Z,19.41
2018-04-22T19:22:08.556Z,19.31
2018-04-22T19:24:35.248Z,19.30
2018-04-22T19:27:02.680Z,19.13
2018-04-22T19:29:29.349Z,18.98
2018-04-22T19:31:56.926Z,18.95
2018-04-22T19:34:23.635Z,18.93
2018-04-22T19:36:50.332Z,18.88
2018-04-22T19:39:17.003Z,18.86
2018-04-22T19:41:44.643Z,18.80
2018-04-22T19:44:11.327Z,18.75
2018-04-22T19:46:38.017Z,18.65
2018-04-22T19:49:04.713Z,18.64
2018-04-22T19:51:31.624Z,18.54
2018-04-22T19:53:58.506Z,18.45
2018-04-22T19:56:25.266Z,18.35
2018-04-22T19:58:52.046Z,18.17
2018-04-22T20:01:19.566Z,18.04
2018-04-22T20:03:46.309Z,17.99
2018-04-22T20:06:13.057Z,17.93
2018-04-22T20:08:39.747Z,17.92
2018-04-22T20:11:06.482Z,17.87
2018-04-22T20:13:33.179Z,17.86
2018-04-22T20:15:59.900Z,17.73
2018-04-22T20:18:26.603Z,18.07
2018-04-22T20:20:53.283Z,17.85
2018-04-22T20:23:20.057Z,17.78
2018-04-22T20:25:47.521Z,17.65
2018-04-22T20:28:14.956Z,17.65
2018-04-22T20:30:42.328Z,17.55
2018-04-22T20:33:09.756Z,17.46
2018-04-22T20:35:36.444Z,17.38
2018-04-22T20:38:03.151Z,17.28
2018-04-22T20:40:29.840Z,17.19
2018-04-22T20:42:56.561Z,17.14
2018-04-22T20:45:23.248Z,17.09
2018-04-22T20:47:49.923Z,16.99
2018-04-22T20:50:17.374Z,17.13
2018-04-22T20:52:44.850Z,17.09
2018-04-22T20:55:11.528Z,16.95
2018-04-22T20:57:38.230Z,16.80
2018-04-22T21:00:04.928Z,16.80
2018-04-22T21:02:31.608Z,16.81
2018-04-22T21:04:58.301Z,16.85
2018-04-22T21:07:25.015Z,16.83
2018-04-22T21:09:52.668Z,16.84
2018-04-22T21:12:19.460Z,16.88
2018-04-22T21:14:46.995Z,16.73
2018-04-22T21:17:13.696Z,16.58
2018-04-22T21:19:41.138Z,16.54
2018-04-22T21:22:07.811Z,16.87
2018-04-22T21:24:34.511Z,16.83
2018-04-22T21:27:01.199Z,16.66
2018-04-22T21:29:27.919Z,16.51
2018-04-22T21:31:54.588Z,16.40
2018-04-22T21:34:21.252Z,16.28
2018-04-22T21:36:47.918Z,16.19
2018-04-22T21:39:14.584Z,16.18
2018-04-22T21:41:41.291Z,16.15
2018-04-22T21:44:07.992Z,16.26
2018-04-22T21:46:35.472Z,16.20
2018-04-22T21:49:02.185Z,16.12
2018-04-22T21:51:28.957Z,15.97
2018-04-22T21:53:55.645Z,15.87
2018-04-22T21:56:22.316Z,15.78
2018-04-22T21:58:49.821Z,15.66
2018-04-22T22:01:16.556Z,15.57
2018-04-22T22:03:43.239Z,15.63
2018-04-22T22:06:09.976Z,15.55
2018-04-22T22:08:36.656Z,15.58
2018-04-22T22:11:03.386Z,15.46
2018-04-22T22:13:30.071Z,15.48
2018-04-22T22:15:56.763Z,15.44
2018-04-22T22:18:23.424Z,15.33
2018-04-22T22:20:50.123Z,15.44
2018-04-22T22:23:17.579Z,15.31
2018-04-22T22:25:45.017Z,15.24
2018-04-22T22:28:11.686Z,15.17
2018-04-22T22:30:38.358Z,15.05
2018-04-22T22:33:05.046Z,14.99
2018-04-22T22:35:32.466Z,14.91
2018-04-22T22:37:59.149Z,14.90
2018-04-22T22:40:26.584Z,14.82
2018-04-22T22:42:53.334Z,14.70
2018-04-22T22:45:20.781Z,14.69
2018-04-22T22:47:47.463Z,14.66
2018-04-22T22:50:14.156Z,14.65
2018-04-22T22:52:40.856Z,14.76
2018-04-22T22:55:07.543Z,14.69
2018-04-22T22:57:34.283Z,14.56
2018-04-22T23:00:01.766Z,14.39
2018-04-22T23:02:28.486Z,14.37
2018-04-22T23:04:55.923Z,14.23
2018-04-22T23:07:22.603Z,14.15
2018-04-22T23:09:49.306Z,14.14
2018-04-22T23:12:15.971Z,14.00
2018-04-22T23:14:42.651Z,13.90
2018-04-22T23:17:09.346Z,13.95
2018-04-22T23:19:36.036Z,13.88
2018-04-22T23:22:02.747Z,13.85
2018-04-22T23:24:29.406Z,13.81
2018-04-22T23:26:56.083Z,13.72
2018-04-22T23:29:23.512Z,13.67
2018-04-22T23:31:50.198Z,13.70
2018-04-22T23:34:16.878Z,13.74
2018-04-22T23:36:43.545Z,13.69
2018-04-22T23:39:10.230Z,13.51
2018-04-22T23:41:36.927Z,13.60
2018-04-22T23:44:03.635Z,13.36
2018-04-22T23:46:30.304Z,13.21
2018-04-22T23:48:57.738Z,13.39
2018-04-22T23:51:24.411Z,13.39
2018-04-22T23:53:51.088Z,13.51
2018-04-22T23:56:17.798Z,13.35
2018-04-22T23:58:44.478Z,13.29
